createdAt,value
2023-10-13T00:02:37.354Z,15.50
2023-10-13T00:05:39.033Z,15.49
2023-10-13T00:08:40.901Z,15.44
2023-10-13T00:11:43.074Z,15.43
2023-10-13T00:14:46.097Z,15.40
2023-10-13T00:17:47.813Z,15.42
2023-10-13T00:20:49.586Z,15.39
2023-10-13T00:23:51.255Z,15.39
2023-10-13T00:26:52.913Z,15.42
2023-10-13T00:29:56.319Z,15.42
2023-10-13T00:32:58.536Z,15.38
2023-10-13T00:36:00.244Z,15.40
2023-10-13T00:39:01.905Z,15.44
2023-10-13T00:42:03.739Z,15.40
2023-10-13T00:45:08.282Z,15.38
2023-10-13T00:48:10.332Z,15.26
2023-10-13T00:51:13.742Z,15.21
2023-10-13T00:54:16.381Z,15.15
2023-10-13T00:57:18.170Z,15.19
2023-10-13T01:00:21.365Z,15.12
2023-10-13T01:03:24.038Z,15.14
2023-10-13T01:06:27.736Z,15.10
2023-10-13T01:09:29.398Z,15.05
2023-10-13T01:12:31.153Z,15.10
2023-10-13T01:15:34.283Z,15.10
2023-10-13T01:18:35.998Z,15.07
2023-10-13T01:21:37.668Z,15.07
2023-10-13T01:24:40.996Z,15.07
2023-10-13T01:27:42.640Z,15.07
2023-10-13T01:30:44.570Z,15.06
2023-10-13T01:33:46.352Z,15.08
2023-10-13T01:36:49.598Z,15.09
2023-10-13T01:39:52.651Z,15.07
2023-10-13T01:42:54.316Z,15.13
2023-10-13T01:45:56.030Z,15.14
2023-10-13T01:48:57.769Z,15.13
2023-10-13T01:51:59.501Z,15.15
2023-10-13T01:55:02.522Z,15.16
2023-10-13T01:58:05.531Z,15.11
2023-10-13T02:01:08.992Z,15.11
2023-10-13T02:04:10.811Z,15.11
2023-10-13T02:07:12.551Z,15.12
2023-10-13T02:10:15.726Z,15.12
2023-10-13T02:13:18.792Z,15.12
2023-10-13T02:16:20.566Z,15.16
2023-10-13T02:19:22.382Z,15.20
2023-10-13T02:22:24.231Z,15.22
2023-10-13T02:25:27.294Z,15.20
2023-10-13T02:28:29.119Z,15.19
2023-10-13T02:31:30.930Z,15.15
2023-10-13T02:34:32.672Z,15.16
2023-10-13T02:37:34.498Z,15.17
2023-10-13T02:40:37.972Z,15.20
2023-10-13T02:43:39.684Z,15.17
2023-10-13T02:46:41.738Z,15.21
2023-10-13T02:49:43.573Z,15.23
2023-10-13T02:52:45.333Z,15.28
2023-10-13T02:55:53.308Z,15.26
2023-10-13T02:58:54.990Z,15.27
2023-10-13T03:01:56.688Z,15.27
2023-10-13T03:04:59.101Z,15.23
2023-10-13T03:08:00.758Z,15.24
2023-10-13T03:11:03.829Z,15.26
2023-10-13T03:14:05.584Z,15.27
2023-10-13T03:17:07.511Z,15.30
2023-10-13T03:20:10.289Z,15.28
2023-10-13T03:23:11.992Z,15.28
2023-10-13T03:26:15.059Z,15.27
2023-10-13T03:29:16.720Z,15.31
2023-10-13T03:32:18.401Z,15.40
2023-10-13T03:35:20.506Z,15.43
2023-10-13T03:38:22.235Z,15.43
2023-10-13T03:41:25.350Z,15.48
2023-10-13T03:44:27.004Z,15.50
2023-10-13T03:47:28.731Z,15.53
2023-10-13T03:50:30.494Z,15.58
2023-10-13T03:53:32.762Z,15.58
2023-10-13T03:56:36.722Z,15.55
2023-10-13T03:59:39.062Z,15.56
2023-10-13T04:02:40.859Z,15.59
2023-10-13T04:05:43.049Z,15.62
2023-10-13T04:08:44.833Z,15.63
2023-10-13T04:11:47.903Z,15.53
2023-10-13T04:14:49.601Z,15.43
2023-10-13T04:17:51.733Z,15.49
2023-10-13T04:20:54.309Z,15.54
2023-10-13T04:23:56.006Z,15.59
2023-10-13T04:26:59.176Z,15.62
2023-10-13T04:30:00.839Z,15.62
2023-10-13T04:33:02.732Z,15.54
2023-10-13T04:36:05.990Z,15.50
2023-10-13T04:39:07.667Z,15.47
2023-10-13T04:42:10.770Z,15.57
2023-10-13T04:45:12.437Z,15.45
2023-10-13T04:48:14.195Z,15.47
2023-10-13T04:51:15.980Z,15.55
2023-10-13T04:54:17.712Z,15.50
2023-10-13T04:57:21.932Z,15.55
2023-10-13T05:00:23.670Z,15.59
2023-10-13T05:03:25.369Z,15.68
2023-10-13T05:06:27.059Z,15.71
2023-10-13T05:09:28.759Z,15.77
2023-10-13T05:12:31.790Z,15.80
2023-10-13T05:15:33.488Z,15.71
2023-10-13T05:18:35.641Z,15.81
2023-10-13T05:21:37.283Z,15.83
2023-10-13T05:24:38.947Z,15.87
2023-10-13T05:27:42.037Z,15.93
2023-10-13T05:30:43.719Z,15.95
2023-10-13T05:33:45.372Z,15.95
2023-10-13T05:36:47.063Z,15.96
2023-10-13T05:39:48.725Z,15.94
2023-10-13T05:42:51.733Z,15.93
2023-10-13T05:45:53.486Z,15.94
2023-10-13T05:48:55.821Z,15.99
2023-10-13T05:51:57.493Z,16.01
2023-10-13T05:54:59.153Z,16.01
2023-10-13T05:58:02.245Z,16.03
2023-10-13T06:01:03.904Z,16.07
2023-10-13T06:04:05.909Z,16.13
2023-10-13T06:07:07.594Z,16.18
2023-10-13T06:10:11.076Z,16.25
2023-10-13T06:13:14.474Z,16.20
2023-10-13T06:16:17.759Z,16.28
2023-10-13T06:19:19.692Z,16.32
2023-10-13T06:22:21.580Z,16.35
2023-10-13T06:25:23.442Z,16.30
2023-10-13T06:28:26.653Z,16.30
2023-10-13T06:31:28.488Z,16.27
2023-10-13T06:34:30.363Z,16.35
2023-10-13T06:37:32.202Z,16.45
2023-10-13T06:40:33.983Z,16.39
2023-10-13T06:43:38.114Z,16.50
2023-10-13T06:46:39.893Z,16.57
2023-10-13T06:49:41.693Z,16.58
2023-10-13T06:52:43.613Z,16.62
2023-10-13T06:55:45.425Z,16.71
2023-10-13T06:58:48.790Z,16.69
2023-10-13T07:01:50.634Z,16.72
2023-10-13T07:04:52.517Z,16.75
2023-10-13T07:07:54.297Z,16.72
2023-10-13T07:10:57.128Z,16.74
2023-10-13T07:14:00.751Z,16.76
2023-10-13T07:17:05.413Z,16.78
2023-10-13T07:20:08.509Z,16.73
2023-10-13T07:23:10.315Z,16.75
2023-10-13T07:26:12.008Z,16.72
2023-10-13T07:29:15.104Z,16.79
2023-10-13T07:32:16.840Z,16.79
2023-10-13T07:35:20.806Z,16.74
2023-10-13T07:38:22.479Z,16.76
2023-10-13T07:41:24.147Z,16.76
2023-10-13T07:44:27.184Z,16.73
2023-10-13T07:47:28.984Z,16.83
2023-10-13T07:50:30.952Z,16.89
2023-10-13T07:53:33.233Z,16.95
2023-10-13T07:56:35.073Z,17.02
2023-10-13T07:59:38.254Z,17.07
2023-10-13T08:02:40.030Z,17.14
2023-10-13T08:05:41.770Z,17.14
2023-10-13T08:08:44.032Z,17.23
2023-10-13T08:11:45.727Z,17.31
2023-10-13T08:14:48.742Z,17.41
2023-10-13T08:17:50.546Z,17.55
2023-10-13T08:20:52.495Z,17.66
2023-10-13T08:23:54.260Z,17.60
2023-10-13T08:26:56.942Z,17.71
2023-10-13T08:30:00.055Z,17.75
2023-10-13T08:33:01.748Z,17.80
2023-10-13T08:36:04.074Z,17.93
2023-10-13T08:39:05.796Z,18.18
2023-10-13T08:42:07.760Z,18.29
2023-10-13T08:45:12.360Z,18.29
2023-10-13T08:48:14.748Z,18.43
2023-10-13T08:51:16.812Z,18.50
2023-10-13T08:54:19.088Z,18.61
2023-10-13T08:57:21.241Z,18.72
2023-10-13T09:00:24.688Z,18.74
2023-10-13T09:03:26.373Z,18.86
2023-10-13T09:06:28.086Z,18.91
2023-10-13T09:09:30.744Z,19.08
2023-10-13T09:12:32.446Z,19.14
2023-10-13T09:15:35.492Z,19.19
2023-10-13T09:18:38.394Z,19.33
2023-10-13T09:21:40.516Z,19.46
2023-10-13T09:24:42.169Z,19.48
2023-10-13T09:27:43.856Z,19.48
2023-10-13T09:30:48.321Z,19.58
2023-10-13T09:33:50.045Z,19.55
2023-10-13T09:36:51.885Z,19.60
2023-10-13T09:39:53.769Z,19.69
2023-10-13T09:42:56.289Z,19.74
2023-10-13T09:45:59.905Z,19.77
2023-10-13T09:49:13.075Z,19.92
2023-10-13T09:52:16.943Z,20.08
2023-10-13T09:55:27.514Z,20.19
2023-10-13T09:58:31.406Z,20.23
2023-10-13T10:01:38.240Z,20.40
2023-10-13T10:04:40.088Z,20.56
2023-10-13T10:07:41.979Z,20.85
2023-10-13T10:10:56.826Z,20.98
2023-10-13T10:14:08.922Z,20.92
2023-10-13T10:17:12.099Z,20.94
2023-10-13T10:20:14.211Z,20.98
2023-10-13T10:23:25.827Z,21.01
2023-10-13T10:26:27.493Z,21.07
2023-10-13T10:29:29.210Z,21.25
2023-10-13T10:32:36.799Z,21.41
2023-10-13T10:35:39.348Z,21.62
2023-10-13T10:38:53.173Z,21.82
2023-10-13T10:41:54.932Z,22.05
2023-10-13T10:44:56.777Z,22.24
2023-10-13T10:47:59.925Z,22.41
2023-10-13T10:51:02.019Z,22.43
2023-10-13T10:54:04.033Z,22.55
2023-10-13T10:57:07.048Z,22.58
2023-10-13T11:00:19.425Z,22.59
2023-10-13T11:03:22.576Z,22.66
2023-10-13T11:06:24.928Z,22.77
2023-10-13T11:09:27.691Z,22.81
2023-10-13T11:12:29.382Z,22.86
2023-10-13T11:15:42.505Z,22.93
2023-10-13T11:18:45.555Z,23.02
2023-10-13T11:21:47.680Z,23.09
2023-10-13T11:24:49.743Z,23.15
2023-10-13T11:27:51.416Z,23.23
2023-10-13T11:30:53.115Z,23.29
2023-10-13T11:33:56.177Z,23.34
2023-10-13T11:36:57.846Z,23.34
2023-10-13T11:39:59.573Z,23.48
2023-10-13T11:43:01.249Z,23.57
2023-10-13T11:46:02.945Z,23.69
2023-10-13T11:49:07.041Z,23.76
2023-10-13T11:52:08.748Z,23.85
2023-10-13T11:55:10.416Z,23.95
2023-10-13T11:58:12.381Z,24.05
2023-10-13T12:01:15.592Z,24.17
2023-10-13T12:04:18.846Z,24.29
2023-10-13T12:07:21.549Z,24.34
2023-10-13T12:10:23.578Z,24.45
2023-10-13T12:13:25.374Z,24.56
2023-10-13T12:16:27.197Z,24.63
2023-10-13T12:19:30.552Z,24.59
2023-10-13T12:22:32.499Z,24.62
2023-10-13T12:25:35.616Z,24.71
2023-10-13T12:28:37.161Z,24.77
2023-10-13T12:31:38.925Z,24.77
2023-10-13T12:34:42.762Z,24.78
2023-10-13T12:37:44.643Z,24.78
2023-10-13T12:40:49.310Z,24.72
2023-10-13T12:43:51.166Z,24.77
2023-10-13T12:46:53.188Z,24.75
2023-10-13T12:49:56.774Z,24.76
2023-10-13T12:52:58.524Z,24.80
2023-10-13T12:56:00.300Z,24.77
2023-10-13T12:59:02.047Z,24.80
2023-10-13T13:02:03.894Z,24.87
2023-10-13T13:05:07.710Z,24.91
2023-10-13T13:08:09.454Z,24.88
2023-10-13T13:11:11.295Z,24.83
2023-10-13T13:14:12.998Z,24.81
2023-10-13T13:17:15.050Z,24.91
2023-10-13T13:20:18.231Z,24.93
2023-10-13T13:23:19.726Z,24.99
2023-10-13T13:26:21.419Z,25.01
2023-10-13T13:29:23.343Z,25.12
2023-10-13T13:32:25.381Z,25.15
2023-10-13T13:35:28.994Z,25.18
2023-10-13T13:38:30.455Z,25.20
2023-10-13T13:41:31.980Z,25.28
2023-10-13T13:44:33.770Z,25.26
2023-10-13T13:47:35.624Z,25.27
2023-10-13T13:50:38.906Z,25.31
2023-10-13T13:53:40.606Z,25.34
2023-10-13T13:56:42.298Z,25.37
2023-10-13T13:59:43.999Z,25.38
2023-10-13T14:02:45.833Z,25.45
2023-10-13T14:05:49.049Z,25.44
2023-10-13T14:08:50.848Z,25.52
2023-10-13T14:11:52.522Z,25.62
2023-10-13T14:14:54.247Z,25.66
2023-10-13T14:17:55.898Z,25.66
2023-10-13T14:20:59.083Z,25.69
2023-10-13T14:24:00.587Z,25.68
2023-10-13T14:27:04.032Z,25.66
2023-10-13T14:30:06.973Z,25.55
2023-10-13T14:33:08.639Z,25.53
2023-10-13T14:36:13.388Z,25.47
2023-10-13T14:39:16.201Z,25.38
2023-10-13T14:42:17.867Z,25.32
2023-10-13T14:45:19.529Z,25.22
2023-10-13T14:48:21.255Z,25.14
2023-10-13T14:51:24.301Z,25.07
2023-10-13T14:54:25.794Z,24.97
2023-10-13T14:57:27.502Z,24.87
2023-10-13T15:00:29.212Z,24.76
2023-10-13T15:03:30.980Z,24.67
2023-10-13T15:06:34.099Z,24.60
2023-10-13T15:09:35.829Z,24.50
2023-10-13T15:12:37.505Z,24.44
2023-10-13T15:15:39.169Z,24.31
2023-10-13T15:18:40.878Z,24.18
2023-10-13T15:21:43.936Z,24.00
2023-10-13T15:24:45.442Z,23.90
2023-10-13T15:27:46.928Z,23.81
2023-10-13T15:30:48.660Z,23.69
2023-10-13T15:33:52.273Z,23.53
2023-10-13T15:36:56.390Z,23.40
2023-10-13T15:39:58.142Z,23.27
2023-10-13T15:42:59.899Z,23.20
2023-10-13T15:46:17.253Z,23.13
2023-10-13T15:49:23.397Z,23.03
2023-10-13T15:52:26.513Z,22.97
2023-10-13T15:55:28.175Z,22.83
2023-10-13T15:58:29.865Z,22.70
2023-10-13T16:01:31.677Z,22.57
2023-10-13T16:04:33.509Z,22.44
2023-10-13T16:07:36.578Z,22.26
2023-10-13T16:10:39.389Z,22.09
2023-10-13T16:13:41.405Z,21.94
2023-10-13T16:16:44.176Z,21.79
2023-10-13T16:19:45.879Z,21.70
2023-10-13T16:22:49.370Z,21.53
2023-10-13T16:25:51.039Z,21.35
2023-10-13T16:28:53.034Z,21.23
2023-10-13T16:31:54.753Z,21.09
2023-10-13T16:34:57.987Z,20.96
2023-10-13T16:38:03.007Z,20.87
2023-10-13T16:41:05.208Z,20.75
2023-10-13T16:44:06.991Z,20.64
2023-10-13T16:47:08.639Z,20.55
2023-10-13T16:50:11.194Z,20.50
2023-10-13T16:53:14.310Z,20.47
2023-10-13T16:56:16.334Z,20.41
2023-10-13T16:59:18.016Z,20.35
2023-10-13T17:02:19.709Z,20.30
2023-10-13T17:05:21.459Z,20.29
2023-10-13T17:08:24.590Z,20.31
2023-10-13T17:11:26.310Z,20.31
2023-10-13T17:14:27.981Z,20.31
2023-10-13T17:17:29.728Z,20.47
2023-10-13T17:20:34.872Z,20.21
2023-10-13T17:23:37.968Z,20.26
2023-10-13T17:26:39.698Z,20.18
2023-10-13T17:29:41.438Z,20.09
2023-10-13T17:32:43.203Z,19.97
2023-10-13T17:35:45.101Z,19.90
2023-10-13T17:38:48.405Z,19.68
2023-10-13T17:41:49.909Z,19.66
2023-10-13T17:44:51.763Z,19.61
2023-10-13T17:47:53.533Z,19.35
2023-10-13T17:50:55.300Z,19.18
2023-10-13T17:53:58.404Z,19.14
2023-10-13T17:57:00.748Z,19.07
2023-10-13T18:00:02.797Z,18.99
2023-10-13T18:03:05.065Z,18.89
2023-10-13T18:06:07.345Z,18.86
2023-10-13T18:09:11.225Z,18.77
2023-10-13T18:12:13.406Z,18.68
2023-10-13T18:15:15.589Z,18.61
2023-10-13T18:18:18.081Z,18.53
2023-10-13T18:21:19.772Z,18.47
2023-10-13T18:24:23.510Z,18.35
2023-10-13T18:27:25.589Z,18.25
2023-10-13T18:30:27.790Z,18.18
2023-10-13T18:33:29.673Z,18.12
2023-10-13T18:36:32.063Z,18.05
2023-10-13T18:39:35.523Z,18.12
2023-10-13T18:42:39.675Z,18.17
2023-10-13T18:45:42.109Z,18.18
2023-10-13T18:48:45.772Z,18.17
2023-10-13T18:51:47.995Z,18.16
2023-10-13T18:54:52.598Z,18.08
2023-10-13T18:57:55.094Z,18.00
2023-10-13T19:00:58.036Z,17.88
2023-10-13T19:04:01.914Z,17.84
2023-10-13T19:07:06.118Z,17.76
2023-10-13T19:10:10.580Z,17.70
2023-10-13T19:13:13.229Z,17.61
2023-10-13T19:16:16.402Z,17.51
2023-10-13T19:19:18.999Z,17.49
2023-10-13T19:22:21.471Z,17.44
2023-10-13T19:25:25.100Z,17.38
2023-10-13T19:28:28.714Z,17.32
2023-10-13T19:31:31.464Z,17.26
2023-10-13T19:34:33.728Z,17.16
2023-10-13T19:37:37.146Z,17.08
2023-10-13T19:40:41.804Z,17.02
2023-10-13T19:43:45.418Z,16.99
2023-10-13T19:46:48.112Z,16.91
2023-10-13T19:49:51.168Z,16.91
2023-10-13T19:52:53.589Z,16.89
2023-10-13T19:55:59.072Z,16.86
2023-10-13T19:59:01.705Z,16.81
2023-10-13T20:02:04.022Z,16.78
2023-10-13T20:05:06.892Z,16.75
2023-10-13T20:08:09.557Z,16.69
2023-10-13T20:11:13.325Z,16.65
2023-10-13T20:14:15.378Z,16.60
2023-10-13T20:17:17.631Z,16.63
2023-10-13T20:20:19.593Z,16.53
2023-10-13T20:23:21.513Z,16.51
2023-10-13T20:26:25.353Z,16.47
2023-10-13T20:29:27.314Z,16.44
2023-10-13T20:32:29.218Z,16.39
2023-10-13T20:35:31.174Z,16.37
2023-10-13T20:38:33.059Z,16.38
2023-10-13T20:41:36.142Z,16.30
2023-10-13T20:44:37.813Z,16.34
2023-10-13T20:47:39.554Z,16.33
2023-10-13T20:50:41.245Z,16.31
2023-10-13T20:53:44.364Z,16.28
2023-10-13T20:56:47.437Z,16.26
2023-10-13T20:59:49.887Z,16.22
2023-10-13T21:02:51.803Z,16.22
2023-10-13T21:05:55.535Z,16.21
2023-10-13T21:08:57.338Z,16.20
2023-10-13T21:12:00.381Z,16.14
2023-10-13T21:15:02.023Z,16.06
2023-10-13T21:18:03.879Z,16.03
2023-10-13T21:21:06.697Z,16.01
2023-10-13T21:24:09.175Z,15.96
2023-10-13T21:27:12.219Z,15.92
2023-10-13T21:30:14.278Z,15.93
2023-10-13T21:33:15.936Z,15.87
2023-10-13T21:36:17.767Z,15.79
2023-10-13T21:39:21.183Z,15.71
2023-10-13T21:42:27.005Z,15.68
2023-10-13T21:45:28.858Z,15.67
2023-10-13T21:48:30.579Z,15.65
2023-10-13T21:51:33.214Z,15.63
2023-10-13T21:54:34.960Z,15.64
2023-10-13T21:57:38.105Z,15.62
2023-10-13T22:00:39.857Z,15.73
2023-10-13T22:03:41.822Z,15.74
2023-10-13T22:06:43.675Z,15.70
2023-10-13T22:09:45.436Z,15.67
2023-10-13T22:12:49.937Z,15.60
2023-10-13T22:15:51.678Z,15.64
2023-10-13T22:18:53.445Z,15.51
2023-10-13T22:21:55.208Z,15.60
2023-10-13T22:24:56.964Z,15.57
2023-10-13T22:28:00.171Z,15.60
2023-10-13T22:31:01.939Z,15.49
2023-10-13T22:34:03.964Z,15.49
2023-10-13T22:37:06.417Z,15.40
2023-10-13T22:40:09.536Z,15.29
2023-10-13T22:43:12.603Z,15.23
2023-10-13T22:46:14.361Z,15.17
2023-10-13T22:49:16.213Z,15.18
2023-10-13T22:52:17.975Z,15.14
2023-10-13T22:55:19.611Z,15.11
2023-10-13T22:58:22.722Z,15.07
2023-10-13T23:01:24.394Z,15.11
2023-10-13T23:04:26.393Z,15.08
2023-10-13T23:07:28.234Z,15.02
2023-10-13T23:10:29.942Z,15.03
2023-10-13T23:13:33.021Z,15.07
2023-10-13T23:16:34.745Z,15.04
2023-10-13T23:19:36.848Z,15.01
2023-10-13T23:22:38.595Z,15.02
2023-10-13T23:25:40.741Z,15.02
2023-10-13T23:28:43.922Z,15.01
2023-10-13T23:31:45.684Z,15.02
2023-10-13T23:34:47.390Z,14.95
2023-10-13T23:37:49.103Z,14.99
2023-10-13T23:40:50.764Z,14.95
2023-10-13T23:43:54.122Z,14.90
2023-10-13T23:46:55.860Z,14.88
2023-10-13T23:49:57.613Z,14.89
2023-10-13T23:52:59.325Z,14.87
2023-10-13T23:56:02.121Z,14.88
2023-10-13T23:59:05.235Z,14.87
